Archival Weather

Downtown Manhattan/Wall St

New York, Downtown Manhattan/Wall St (KJRB)

Report from: Friday, February 23, 2024 12:24 PM EST
Current time: Wednesday, May 29, 2024 8:29 PM EDT

Current weather – Weather history – Daily summaries
Weather forecast

Present weatherLight rain
Temperature8.0°C (46.4°F)
Dew point5.0°C (41.0°F)
Winds Calm
Visibility9 mi. (14.5 km)
Clouds Ceiling: Broken clouds 1,600 ft. (488 m)
Overcast 4,400 ft. (1,341 m)
Altimeter29.50 in.Hg (999 mB)
Relative humidity81 %
Density altitude-226 ft. (-69 m)
Remarks Fully automated report
System requires maintenance
Automated weather observing station with precipitation discriminator
Precipitation sensor not operating
Flight conditions Marginal Visual Meteorological Conditions
Raw dataKJRB 231724Z AUTO 00000KT 9SM -RA BKN016 OVC044 08/05 A2950 RMK AO2 PNO $
An error has occurred. This application may no longer respond until reloaded. Reload 🗙